createdAt,value
2023-02-01T00:01:27.203Z,1.44
2023-02-01T00:03:55.481Z,1.44
2023-02-01T00:06:25.390Z,1.41
2023-02-01T00:08:55.462Z,1.42
2023-02-01T00:11:24.471Z,1.34
2023-02-01T00:13:53.280Z,1.07
2023-02-01T00:16:24.006Z,1.22
2023-02-01T00:18:54.750Z,1.18
2023-02-01T00:21:24.954Z,1.26
2023-02-01T00:23:53.162Z,1.23
2023-02-01T00:26:25.333Z,1.18
2023-02-01T00:28:53.456Z,1.14
2023-02-01T00:31:21.539Z,1.19
2023-02-01T00:33:50.487Z,1.10
2023-02-01T00:36:19.017Z,1.15
2023-02-01T00:38:49.213Z,0.94
2023-02-01T00:41:19.198Z,0.99
2023-02-01T00:43:48.012Z,1.06
2023-02-01T00:46:17.948Z,0.95
2023-02-01T00:48:46.515Z,1.16
2023-02-01T00:51:16.624Z,1.16
2023-02-01T00:53:45.344Z,1.25
2023-02-01T00:56:15.714Z,1.24
2023-02-01T00:58:45.788Z,0.85
2023-02-01T01:01:15.812Z,1.21
2023-02-01T01:03:47.262Z,1.20
2023-02-01T01:06:17.814Z,1.21
2023-02-01T01:08:46.722Z,1.26
2023-02-01T01:11:19.174Z,1.29
2023-02-01T01:13:51.379Z,1.28
2023-02-01T01:16:21.443Z,1.09
2023-02-01T01:18:50.098Z,1.30
2023-02-01T01:21:19.080Z,1.23
2023-02-01T01:23:48.600Z,1.08
2023-02-01T01:26:20.298Z,0.95
2023-02-01T01:28:48.625Z,0.91
2023-02-01T01:31:18.953Z,0.92
2023-02-01T01:33:51.536Z,0.94
2023-02-01T01:36:20.530Z,0.86
2023-02-01T01:38:48.743Z,0.79
2023-02-01T01:41:20.237Z,0.63
2023-02-01T01:43:55.177Z,0.79
2023-02-01T01:46:25.860Z,0.78
2023-02-01T01:48:59.397Z,0.70
2023-02-01T01:51:30.876Z,0.71
2023-02-01T01:54:04.929Z,0.70
2023-02-01T01:56:37.180Z,0.61
2023-02-01T01:59:07.355Z,0.85
2023-02-01T02:01:35.802Z,0.91
2023-02-01T02:04:04.448Z,0.95
2023-02-01T02:06:41.292Z,0.86
2023-02-01T02:09:09.784Z,1.01
2023-02-01T02:11:39.856Z,0.88
2023-02-01T02:14:11.728Z,0.80
2023-02-01T02:17:20.909Z,0.99
2023-02-01T02:20:27.313Z,0.81
2023-02-01T02:23:41.788Z,0.51
2023-02-01T02:26:27.935Z,0.49
2023-02-01T02:29:30.037Z,0.53
2023-02-01T02:32:41.080Z,0.56
2023-02-01T02:35:19.378Z,0.58
2023-02-01T02:37:54.104Z,0.64
2023-02-01T02:40:30.786Z,0.56
2023-02-01T02:43:25.335Z,0.57
2023-02-01T02:46:14.875Z,0.52
2023-02-01T02:48:51.441Z,0.50
2023-02-01T02:51:40.472Z,0.66
2023-02-01T02:54:29.945Z,0.52
2023-02-01T02:57:18.185Z,0.68
2023-02-01T03:00:07.346Z,0.67
2023-02-01T03:02:54.556Z,0.71
2023-02-01T03:05:23.266Z,0.38
2023-02-01T03:08:13.293Z,0.42
2023-02-01T03:10:56.090Z,0.31
2023-02-01T03:13:32.441Z,0.18
2023-02-01T03:16:06.318Z,0.47
2023-02-01T03:18:42.197Z,0.19
2023-02-01T03:21:15.376Z,0.38
2023-02-01T03:23:47.122Z,0.26
2023-02-01T03:26:19.468Z,0.32
2023-02-01T03:28:55.361Z,0.42
2023-02-01T03:31:24.207Z,0.33
2023-02-01T03:33:53.280Z,0.32
2023-02-01T03:36:29.703Z,0.17
2023-02-01T03:39:05.197Z,0.25
2023-02-01T03:41:40.234Z,0.39
2023-02-01T03:44:15.681Z,0.37
2023-02-01T03:46:47.621Z,0.05
2023-02-01T03:49:22.447Z,0.13
2023-02-01T03:51:53.428Z,0.21
2023-02-01T03:54:23.781Z,0.09
2023-02-01T03:56:56.626Z,0.18
2023-02-01T03:59:25.239Z,0.15
2023-02-01T04:01:54.062Z,0.28
2023-02-01T04:04:22.383Z,0.22
2023-02-01T04:06:50.767Z,0.25
2023-02-01T04:09:18.973Z,0.40
2023-02-01T04:11:49.091Z,0.31
2023-02-01T04:14:17.576Z,0.33
2023-02-01T04:16:46.123Z,0.43
2023-02-01T04:19:14.317Z,0.45
2023-02-01T04:21:42.584Z,0.51
2023-02-01T04:24:11.710Z,0.63
2023-02-01T04:26:40.151Z,0.60
2023-02-01T04:29:11.374Z,0.61
2023-02-01T04:31:39.888Z,0.71
2023-02-01T04:34:08.451Z,0.57
2023-02-01T04:36:36.576Z,0.51
2023-02-01T04:39:04.854Z,0.70
2023-02-01T04:41:33.103Z,0.47
2023-02-01T04:44:01.479Z,0.69
2023-02-01T04:46:31.236Z,0.67
2023-02-01T04:48:59.593Z,0.71
2023-02-01T04:51:28.086Z,0.68
2023-02-01T04:54:00.637Z,0.66
2023-02-01T04:56:29.125Z,0.64
2023-02-01T04:58:57.877Z,0.61
2023-02-01T05:01:27.007Z,0.62
2023-02-01T05:03:57.296Z,0.60
2023-02-01T05:06:26.071Z,0.60
2023-02-01T05:08:54.301Z,0.60
2023-02-01T05:11:38.744Z,0.61
2023-02-01T05:14:06.841Z,0.65
2023-02-01T05:16:35.462Z,0.67
2023-02-01T05:19:05.096Z,0.61
2023-02-01T05:21:33.694Z,0.51
2023-02-01T05:24:28.179Z,0.45
2023-02-01T05:26:56.398Z,0.38
2023-02-01T05:29:24.834Z,0.44
2023-02-01T05:31:53.007Z,0.40
2023-02-01T05:34:23.133Z,0.38
2023-02-01T05:36:51.391Z,0.44
2023-02-01T05:39:20.014Z,0.35
2023-02-01T05:41:48.107Z,0.18
2023-02-01T05:44:16.412Z,0.24
2023-02-01T05:46:44.570Z,0.22
2023-02-01T05:49:12.674Z,0.16
2023-02-01T05:51:42.341Z,0.20
2023-02-01T05:54:11.332Z,0.12
2023-02-01T05:56:39.439Z,0.09
2023-02-01T05:59:07.557Z,-0.08
2023-02-01T06:01:35.662Z,0.03
2023-02-01T06:04:04.206Z,0.15
2023-02-01T06:06:32.703Z,0.13
2023-02-01T06:09:02.714Z,0.09
2023-02-01T06:11:32.700Z,-0.01
2023-02-01T06:14:01.350Z,-0.03
2023-02-01T06:16:30.295Z,0.07
2023-02-01T06:18:59.325Z,0.22
2023-02-01T06:21:27.510Z,0.24
2023-02-01T06:23:58.651Z,0.38
2023-02-01T06:26:29.808Z,0.39
2023-02-01T06:28:58.654Z,0.39
2023-02-01T06:31:27.738Z,0.56
2023-02-01T06:33:56.166Z,0.54
2023-02-01T06:36:24.795Z,0.70
2023-02-01T06:38:53.141Z,0.79
2023-02-01T06:41:21.802Z,0.79
2023-02-01T06:43:51.570Z,0.93
2023-02-01T06:46:20.036Z,0.98
2023-02-01T06:48:48.642Z,0.92
2023-02-01T06:51:24.780Z,1.15
2023-02-01T06:53:53.083Z,1.12
2023-02-01T06:56:21.837Z,1.44
2023-02-01T06:58:52.038Z,1.44
2023-02-01T07:01:20.828Z,1.57
2023-02-01T07:03:51.044Z,1.73
2023-02-01T07:06:20.106Z,1.82
2023-02-01T07:08:48.626Z,1.92
2023-02-01T07:11:19.061Z,2.03
2023-02-01T07:13:47.806Z,2.04
2023-02-01T07:16:19.731Z,2.22
2023-02-01T07:18:48.257Z,2.36
2023-02-01T07:21:16.381Z,2.36
2023-02-01T07:23:45.140Z,2.54
2023-02-01T07:26:15.186Z,2.57
2023-02-01T07:28:43.554Z,2.56
2023-02-01T07:31:14.641Z,2.62
2023-02-01T07:33:44.746Z,2.64
2023-02-01T07:36:14.686Z,2.70
2023-02-01T07:38:42.837Z,2.94
2023-02-01T07:41:11.573Z,3.13
2023-02-01T07:43:39.808Z,3.05
2023-02-01T07:46:08.989Z,3.15
2023-02-01T07:48:37.086Z,3.18
2023-02-01T07:51:08.832Z,3.06
2023-02-01T07:53:37.881Z,3.14
2023-02-01T07:56:07.122Z,3.20
2023-02-01T07:58:35.298Z,3.31
2023-02-01T08:01:20.922Z,3.27
2023-02-01T08:03:49.886Z,3.22
2023-02-01T08:06:20.673Z,3.50
2023-02-01T08:08:48.811Z,3.41
2023-02-01T08:11:17.750Z,3.56
2023-02-01T08:13:46.708Z,3.56
2023-02-01T08:16:16.575Z,3.66
2023-02-01T08:18:45.576Z,3.84
2023-02-01T08:21:16.204Z,3.96
2023-02-01T08:23:45.947Z,4.08
2023-02-01T08:26:17.782Z,4.21
2023-02-01T08:28:48.510Z,4.34
2023-02-01T08:31:20.861Z,4.32
2023-02-01T08:33:52.359Z,4.33
2023-02-01T08:36:21.345Z,4.43
2023-02-01T08:38:51.723Z,4.61
2023-02-01T08:41:21.818Z,4.52
2023-02-01T08:43:50.314Z,4.75
2023-02-01T08:46:19.557Z,4.83
2023-02-01T08:48:48.766Z,4.76
2023-02-01T08:51:19.358Z,4.94
2023-02-01T08:53:47.673Z,5.03
2023-02-01T08:56:19.151Z,4.88
2023-02-01T08:58:47.891Z,4.99
2023-02-01T09:01:18.285Z,4.77
2023-02-01T09:03:47.056Z,4.87
2023-02-01T09:06:17.423Z,5.14
2023-02-01T09:08:46.361Z,5.05
2023-02-01T09:11:18.281Z,4.88
2023-02-01T09:13:46.537Z,4.67
2023-02-01T09:16:15.067Z,4.73
2023-02-01T09:18:55.428Z,4.79
2023-02-01T09:21:30.742Z,4.94
2023-02-01T09:23:59.391Z,5.00
2023-02-01T09:26:32.674Z,5.20
2023-02-01T09:29:01.834Z,5.38
2023-02-01T09:31:30.189Z,5.59
2023-02-01T09:33:58.500Z,5.75
2023-02-01T09:36:26.806Z,5.75
2023-02-01T09:38:55.148Z,5.87
2023-02-01T09:41:40.226Z,5.95
2023-02-01T09:44:22.326Z,5.93
2023-02-01T09:46:52.435Z,5.99
2023-02-01T09:49:24.850Z,5.93
2023-02-01T09:51:55.666Z,5.87
2023-02-01T09:54:26.900Z,5.13
2023-02-01T09:57:02.649Z,5.13
2023-02-01T09:59:38.968Z,5.34
2023-02-01T10:02:15.325Z,5.55
2023-02-01T10:04:43.899Z,5.60
2023-02-01T10:07:27.528Z,5.75
2023-02-01T10:10:03.848Z,5.95
2023-02-01T10:13:00.974Z,6.15
2023-02-01T10:15:38.097Z,6.19
2023-02-01T10:18:30.157Z,6.19
2023-02-01T10:21:06.701Z,6.18
2023-02-01T10:23:53.541Z,6.23
2023-02-01T10:26:23.217Z,6.29
2023-02-01T10:28:55.347Z,6.44
2023-02-01T10:31:27.148Z,6.55
2023-02-01T10:33:59.531Z,6.66
2023-02-01T10:36:32.099Z,6.58
2023-02-01T10:39:01.138Z,6.45
2023-02-01T10:41:36.150Z,6.47
2023-02-01T10:44:10.369Z,6.50
2023-02-01T10:46:38.318Z,6.54
2023-02-01T10:49:14.669Z,6.45
2023-02-01T10:51:48.749Z,6.48
2023-02-01T10:54:21.562Z,6.49
2023-02-01T10:56:51.215Z,6.57
2023-02-01T10:59:23.254Z,6.65
2023-02-01T11:01:52.210Z,6.49
2023-02-01T11:04:22.337Z,6.60
2023-02-01T11:06:54.931Z,6.71
2023-02-01T11:09:25.556Z,6.81
2023-02-01T11:11:59.352Z,6.94
2023-02-01T11:14:40.438Z,7.06
2023-02-01T11:17:27.378Z,6.54
2023-02-01T11:20:03.269Z,6.50
2023-02-01T11:22:31.975Z,6.16
2023-02-01T11:25:04.025Z,6.19
2023-02-01T11:27:40.354Z,6.31
2023-02-01T11:30:19.278Z,6.29
2023-02-01T11:32:50.767Z,6.45
2023-02-01T11:35:22.577Z,6.52
2023-02-01T11:38:00.164Z,6.56
2023-02-01T11:40:31.295Z,6.71
2023-02-01T11:43:02.050Z,6.80
2023-02-01T11:45:35.007Z,6.92
2023-02-01T11:48:03.820Z,7.11
2023-02-01T11:50:40.427Z,7.04
2023-02-01T11:53:41.811Z,7.18
2023-02-01T11:56:22.856Z,7.09
2023-02-01T11:59:14.102Z,7.25
2023-02-01T12:01:59.281Z,7.39
2023-02-01T12:04:58.730Z,7.30
2023-02-01T12:07:39.635Z,7.32
2023-02-01T12:10:26.237Z,7.44
2023-02-01T12:13:06.793Z,7.30
2023-02-01T12:15:48.666Z,7.42
2023-02-01T12:18:36.595Z,7.55
2023-02-01T12:21:12.165Z,7.60
2023-02-01T12:23:55.666Z,7.63
2023-02-01T12:26:47.080Z,7.79
2023-02-01T12:29:28.918Z,7.86
2023-02-01T12:32:09.020Z,7.84
2023-02-01T12:34:48.482Z,7.86
2023-02-01T12:37:25.852Z,7.98
2023-02-01T12:40:06.415Z,7.93
2023-02-01T12:42:40.871Z,7.89
2023-02-01T12:45:16.981Z,7.58
2023-02-01T12:48:08.587Z,7.68
2023-02-01T12:51:00.436Z,7.81
2023-02-01T12:53:35.827Z,7.71
2023-02-01T12:56:11.111Z,7.67
2023-02-01T12:58:45.785Z,7.50
2023-02-01T13:01:18.467Z,7.57
2023-02-01T13:03:56.241Z,7.62
2023-02-01T13:06:32.273Z,7.30
2023-02-01T13:09:06.168Z,7.43
2023-02-01T13:14:40.652Z,7.17
2023-02-01T13:17:16.275Z,7.13
2023-02-01T13:19:52.160Z,7.00
2023-02-01T13:22:29.444Z,7.02
2023-02-01T13:28:18.033Z,6.91
2023-02-01T13:31:11.363Z,6.95
2023-02-01T13:34:24.039Z,6.90
2023-02-01T13:37:04.605Z,6.91
2023-02-01T13:39:59.481Z,6.81
2023-02-01T13:49:02.637Z,6.74
2023-02-01T13:51:45.814Z,6.67
2023-02-01T13:54:28.958Z,6.67
2023-02-01T14:00:58.386Z,6.52
2023-02-01T14:25:35.769Z,5.56
2023-02-01T14:38:52.285Z,5.58
2023-02-01T14:41:59.432Z,5.52
2023-02-01T14:44:34.117Z,5.61
2023-02-01T15:04:39.805Z,5.15
2023-02-01T15:20:09.965Z,4.61
2023-02-01T15:22:52.522Z,4.57
2023-02-01T15:40:56.670Z,3.96
2023-02-01T15:49:34.884Z,3.85
2023-02-01T15:52:05.043Z,3.79
2023-02-01T15:54:39.984Z,3.89
2023-02-01T15:57:10.121Z,3.97
2023-02-01T15:59:43.700Z,3.64
2023-02-01T16:02:28.678Z,3.57
2023-02-01T16:04:59.026Z,3.54
2023-02-01T16:07:30.385Z,3.30
2023-02-01T16:10:00.639Z,3.12
2023-02-01T16:12:36.138Z,3.12
2023-02-01T16:15:04.937Z,3.10
2023-02-01T16:17:34.092Z,3.24
2023-02-01T16:20:04.528Z,3.37
2023-02-01T16:22:33.113Z,3.09
2023-02-01T16:25:03.397Z,2.90
2023-02-01T16:27:31.619Z,2.94
2023-02-01T16:30:01.559Z,2.96
2023-02-01T16:32:30.029Z,3.02
2023-02-01T16:35:00.148Z,2.92
2023-02-01T16:37:38.117Z,3.03
2023-02-01T16:43:05.180Z,3.03
2023-02-01T16:45:33.670Z,2.88
2023-02-01T16:48:01.862Z,2.86
2023-02-01T16:51:24.105Z,2.83
2023-02-01T16:53:55.153Z,2.77
2023-02-01T16:56:26.826Z,2.87
2023-02-01T16:58:55.522Z,2.84
2023-02-01T17:01:26.203Z,2.78
2023-02-01T17:03:54.905Z,2.89
2023-02-01T17:09:11.943Z,2.80
2023-02-01T17:12:04.215Z,2.75
2023-02-01T17:17:20.538Z,2.82
2023-02-01T17:19:54.312Z,2.72
2023-02-01T17:22:23.782Z,2.80
2023-02-01T17:24:54.235Z,2.63
2023-02-01T17:27:22.874Z,2.86
2023-02-01T17:29:59.142Z,2.63
2023-02-01T17:32:28.030Z,2.58
2023-02-01T17:34:58.633Z,2.72
2023-02-01T17:37:29.351Z,2.81
2023-02-01T17:39:59.369Z,2.76
2023-02-01T17:42:29.942Z,2.72
2023-02-01T17:45:00.396Z,2.46
2023-02-01T17:47:29.235Z,2.44
2023-02-01T17:49:57.659Z,2.42
2023-02-01T17:52:27.434Z,2.44
2023-02-01T17:54:55.850Z,2.33
2023-02-01T17:57:25.546Z,2.43
2023-02-01T17:59:53.789Z,2.27
2023-02-01T18:02:24.049Z,2.28
2023-02-01T18:04:53.175Z,2.26
2023-02-01T18:07:21.583Z,2.17
2023-02-01T18:09:49.805Z,2.24
2023-02-01T18:12:23.635Z,2.39
2023-02-01T18:14:53.538Z,2.31
2023-02-01T18:17:21.628Z,2.22
2023-02-01T18:19:49.821Z,2.22
2023-02-01T18:22:20.565Z,2.36
2023-02-01T18:24:48.798Z,2.22
2023-02-01T18:27:17.197Z,2.26
2023-02-01T18:29:45.289Z,2.19
2023-02-01T18:32:14.888Z,2.28
2023-02-01T18:34:43.211Z,2.19
2023-02-01T18:37:13.275Z,2.20
2023-02-01T18:39:41.412Z,2.30
2023-02-01T18:42:12.124Z,2.28
2023-02-01T18:44:40.226Z,2.43
2023-02-01T18:47:08.618Z,2.42
2023-02-01T18:49:38.707Z,2.25
2023-02-01T18:52:08.117Z,2.37
2023-02-01T18:54:36.980Z,2.43
2023-02-01T18:57:06.788Z,2.22
2023-02-01T18:59:35.085Z,2.37
2023-02-01T19:02:04.385Z,2.33
2023-02-01T19:04:32.633Z,2.28
2023-02-01T19:07:02.304Z,2.36
2023-02-01T19:09:32.418Z,2.43
2023-02-01T19:12:00.787Z,2.43
2023-02-01T19:14:29.090Z,2.38
2023-02-01T19:16:58.554Z,2.27
2023-02-01T19:19:27.816Z,2.06
2023-02-01T19:21:56.080Z,2.08
2023-02-01T19:24:28.428Z,2.10
2023-02-01T19:26:57.137Z,2.22
2023-02-01T19:29:25.793Z,2.25
2023-02-01T19:31:54.224Z,2.27
2023-02-01T19:34:22.403Z,2.22
2023-02-01T19:36:51.152Z,2.10
2023-02-01T19:39:19.517Z,2.15
2023-02-01T19:41:49.519Z,2.13
2023-02-01T19:44:17.975Z,2.05
2023-02-01T19:46:46.261Z,1.98
2023-02-01T19:49:14.407Z,1.94
2023-02-01T19:51:44.858Z,1.92
2023-02-01T19:54:13.680Z,1.99
2023-02-01T19:56:42.514Z,1.87
2023-02-01T19:59:13.819Z,1.81
2023-02-01T20:01:44.521Z,2.03
2023-02-01T20:04:12.989Z,2.10
2023-02-01T20:06:48.915Z,2.06
2023-02-01T20:09:22.309Z,2.03
2023-02-01T20:11:51.176Z,1.95
2023-02-01T20:14:21.419Z,1.99
2023-02-01T20:16:50.048Z,2.03
2023-02-01T20:19:18.213Z,2.02
2023-02-01T20:21:46.893Z,1.93
2023-02-01T20:24:17.739Z,1.98
2023-02-01T20:26:47.586Z,1.86
2023-02-01T20:29:17.560Z,1.91
2023-02-01T20:31:47.890Z,1.88
2023-02-01T20:34:16.578Z,1.83
2023-02-01T20:36:44.789Z,1.72
2023-02-01T20:39:12.895Z,1.74
2023-02-01T20:41:41.267Z,1.93
2023-02-01T20:44:09.428Z,1.98
2023-02-01T20:46:37.611Z,2.02
2023-02-01T20:49:07.841Z,1.88
2023-02-01T20:51:35.925Z,1.85
2023-02-01T20:54:03.991Z,1.94
2023-02-01T20:56:32.119Z,1.89
2023-02-01T20:59:03.385Z,1.86
2023-02-01T21:01:31.719Z,1.90
2023-02-01T21:03:59.808Z,1.79
2023-02-01T21:06:29.516Z,1.76
2023-02-01T21:08:57.905Z,1.67
2023-02-01T21:11:25.995Z,1.81
2023-02-01T21:13:54.041Z,1.87
2023-02-01T21:16:23.588Z,1.73
2023-02-01T21:18:52.171Z,1.94
2023-02-01T21:21:21.013Z,1.88
2023-02-01T21:23:50.792Z,1.82
2023-02-01T21:26:21.988Z,1.66
2023-02-01T21:28:51.279Z,1.90
2023-02-01T21:31:22.355Z,2.02
2023-02-01T21:33:51.310Z,2.00
2023-02-01T21:36:20.685Z,2.23
2023-02-01T21:38:51.619Z,2.33
2023-02-01T21:41:37.455Z,2.27
2023-02-01T21:44:05.907Z,2.29
2023-02-01T21:46:34.521Z,2.31
2023-02-01T21:49:03.748Z,2.27
2023-02-01T21:51:35.229Z,1.91
2023-02-01T21:54:05.192Z,2.39
2023-02-01T21:56:33.857Z,2.45
2023-02-01T21:59:02.086Z,2.54
2023-02-01T22:01:30.202Z,2.47
2023-02-01T22:03:58.374Z,2.49
2023-02-01T22:06:27.474Z,2.34
2023-02-01T22:08:56.316Z,2.45
2023-02-01T22:11:26.298Z,2.67
2023-02-01T22:13:55.313Z,2.50
2023-02-01T22:16:23.594Z,2.58
2023-02-01T22:18:52.992Z,2.65
2023-02-01T22:21:23.497Z,2.65
2023-02-01T22:23:55.326Z,2.62
2023-02-01T22:26:25.652Z,2.75
2023-02-01T22:28:53.876Z,2.60
2023-02-01T22:31:22.986Z,2.67
2023-02-01T22:33:52.012Z,2.75
2023-02-01T22:36:24.916Z,2.63
2023-02-01T22:38:54.383Z,2.74
2023-02-01T22:41:22.891Z,2.67
2023-02-01T22:43:52.494Z,2.58
2023-02-01T22:46:25.385Z,2.50
2023-02-01T22:48:53.974Z,2.56
2023-02-01T22:51:23.655Z,2.51
2023-02-01T22:53:57.301Z,2.57
2023-02-01T22:56:27.324Z,2.53
2023-02-01T22:58:58.484Z,2.32
2023-02-01T23:01:26.865Z,2.52
2023-02-01T23:03:58.512Z,2.29
2023-02-01T23:06:27.470Z,2.22
2023-02-01T23:08:56.941Z,2.31
2023-02-01T23:11:26.103Z,2.30
2023-02-01T23:13:54.713Z,2.22
2023-02-01T23:16:24.806Z,2.22
2023-02-01T23:18:52.953Z,2.16
2023-02-01T23:21:22.648Z,2.06
2023-02-01T23:23:53.116Z,2.08
2023-02-01T23:26:22.190Z,2.00
2023-02-01T23:28:52.576Z,2.04
2023-02-01T23:31:21.087Z,2.03
2023-02-01T23:33:54.874Z,2.12
2023-02-01T23:36:24.473Z,2.07
2023-02-01T23:38:53.261Z,2.14
2023-02-01T23:41:22.417Z,2.20
2023-02-01T23:43:59.927Z,2.09
2023-02-01T23:46:31.485Z,2.12
2023-02-01T23:49:02.258Z,2.13
2023-02-01T23:51:31.132Z,2.15
2023-02-01T23:54:00.153Z,2.15
2023-02-01T23:56:31.430Z,2.31
2023-02-01T23:58:59.825Z,2.34
